Galax, Virginia
Current Conditions -  °F | °C
As of 1:15 PM on Friday 24 Oct 2014 (Local Time) from KHLX Reporting Station
Clear Clear  
Wind Chill: 55°   Ceiling: Unl
Heat Index: 55°   Visibility: 10mi
Dew Point: 40°   Wind: 6mph
Humidity: 56%   Direction: 330°NNW
Pressure: 30.07"   Gusts: NA
Location:  36.67°N, 80.93°W
Report Text: KHLX 241715Z AUTO 33005KT 10SM CLR 13/04 A3007 RMK AO2 T01290043
Loading
Personal Weather Stations






























Interactive Weather Map
Tropical Storm Tracking
New forecast layout! Learn more

10-Day Weather Forecast

Advertisements
Track Severe Weather on mobile